Terminal Aerodrome Forecast
Issued by NWS

Current Version | Previous Version | Text Only | Print | Product List | Glossary Off
Versions: 1 2 3 4 5 6 7 8 9 10 11 12 13 14 15 16 17

000
FTUS41 KILN 181100
TAFLUK
TAF
KLUK 181120Z 1812/1912 00000KT P6SM SCT070 BKN150
     FM181800 27006KT P6SM BKN060
     FM190000 36005KT P6SM SCT050
     FM190800 03009KT P6SM SKC=

USA.gov is the U.S. government's official web portal to all federal, state and local government web resources and services.